sensor_id;sensor_type;location;lat;lon;timestamp;P1;durP1;ratioP1;P2;durP2;ratioP2
7432;SDS011;32233;49.500;7.764;2022-07-12T00:00:16;8.47;;;7.57;;
7432;SDS011;32233;49.500;7.764;2022-07-12T00:02:43;9.07;;;8.10;;
7432;SDS011;32233;49.500;7.764;2022-07-12T00:05:10;8.87;;;8.07;;
7432;SDS011;32233;49.500;7.764;2022-07-12T00:07:37;8.50;;;7.67;;
7432;SDS011;32233;49.500;7.764;2022-07-12T00:10:04;8.80;;;8.00;;
7432;SDS011;32233;49.500;7.764;2022-07-12T00:12:31;8.57;;;7.67;;
7432;SDS011;32233;49.500;7.764;2022-07-12T00:14:58;8.40;;;7.60;;
7432;SDS011;32233;49.500;7.764;2022-07-12T00:17:25;9.10;;;8.20;;
7432;SDS011;32233;49.500;7.764;2022-07-12T00:19:51;9.60;;;8.70;;
7432;SDS011;32233;49.500;7.764;2022-07-12T00:22:19;8.93;;;8.03;;
7432;SDS011;32233;49.500;7.764;2022-07-12T00:24:46;9.50;;;8.60;;
7432;SDS011;32233;49.500;7.764;2022-07-12T00:27:13;9.43;;;8.43;;
7432;SDS011;32233;49.500;7.764;2022-07-12T00:29:40;9.03;;;8.13;;
7432;SDS011;32233;49.500;7.764;2022-07-12T00:32:06;8.77;;;7.90;;
7432;SDS011;32233;49.500;7.764;2022-07-12T00:34:34;9.00;;;8.00;;
7432;SDS011;32233;49.500;7.764;2022-07-12T00:37:01;10.10;;;8.83;;
7432;SDS011;32233;49.500;7.764;2022-07-12T00:39:28;9.53;;;8.57;;
7432;SDS011;32233;49.500;7.764;2022-07-12T00:41:54;9.10;;;8.20;;
7432;SDS011;32233;49.500;7.764;2022-07-12T00:44:21;8.73;;;7.83;;
7432;SDS011;32233;49.500;7.764;2022-07-12T00:46:48;8.87;;;8.07;;
7432;SDS011;32233;49.500;7.764;2022-07-12T00:49:15;9.13;;;7.90;;
7432;SDS011;32233;49.500;7.764;2022-07-12T00:51:43;10.47;;;8.33;;
7432;SDS011;32233;49.500;7.764;2022-07-12T00:54:10;8.90;;;8.00;;
7432;SDS011;32233;49.500;7.764;2022-07-12T00:56:37;8.57;;;7.77;;
7432;SDS011;32233;49.500;7.764;2022-07-12T00:59:04;9.17;;;8.27;;
7432;SDS011;32233;49.500;7.764;2022-07-12T01:01:30;9.37;;;8.47;;
7432;SDS011;32233;49.500;7.764;2022-07-12T01:03:58;8.63;;;7.73;;
7432;SDS011;32233;49.500;7.764;2022-07-12T01:06:25;8.80;;;7.93;;
7432;SDS011;32233;49.500;7.764;2022-07-12T01:08:52;9.17;;;8.27;;
7432;SDS011;32233;49.500;7.764;2022-07-12T01:11:19;9.73;;;8.27;;
7432;SDS011;32233;49.500;7.764;2022-07-12T01:13:46;8.43;;;7.63;;
7432;SDS011;32233;49.500;7.764;2022-07-12T01:16:13;9.20;;;8.27;;
7432;SDS011;32233;49.500;7.764;2022-07-12T01:18:41;8.97;;;7.80;;
7432;SDS011;32233;49.500;7.764;2022-07-12T01:21:08;9.20;;;8.30;;
7432;SDS011;32233;49.500;7.764;2022-07-12T01:23:36;10.00;;;8.83;;
7432;SDS011;32233;49.500;7.764;2022-07-12T01:26:04;9.00;;;8.13;;
7432;SDS011;32233;49.500;7.764;2022-07-12T01:28:31;9.27;;;8.43;;
7432;SDS011;32233;49.500;7.764;2022-07-12T01:30:58;8.23;;;7.43;;
7432;SDS011;32233;49.500;7.764;2022-07-12T01:33:25;8.57;;;7.70;;
7432;SDS011;32233;49.500;7.764;2022-07-12T01:35:53;9.23;;;8.43;;
7432;SDS011;32233;49.500;7.764;2022-07-12T01:38:19;8.60;;;7.80;;
7432;SDS011;32233;49.500;7.764;2022-07-12T01:40:47;9.00;;;8.07;;
7432;SDS011;32233;49.500;7.764;2022-07-12T01:43:13;9.73;;;7.83;;
7432;SDS011;32233;49.500;7.764;2022-07-12T01:45:40;8.27;;;7.50;;
7432;SDS011;32233;49.500;7.764;2022-07-12T01:48:08;8.77;;;7.80;;
7432;SDS011;32233;49.500;7.764;2022-07-12T01:50:35;9.90;;;8.77;;
7432;SDS011;32233;49.500;7.764;2022-07-12T01:53:02;9.53;;;8.53;;
7432;SDS011;32233;49.500;7.764;2022-07-12T01:55:31;9.13;;;8.23;;
7432;SDS011;32233;49.500;7.764;2022-07-12T01:57:57;9.57;;;8.60;;
7432;SDS011;32233;49.500;7.764;2022-07-12T02:00:24;9.47;;;8.43;;
7432;SDS011;32233;49.500;7.764;2022-07-12T02:02:51;9.57;;;8.60;;
7432;SDS011;32233;49.500;7.764;2022-07-12T02:05:19;9.10;;;8.23;;
7432;SDS011;32233;49.500;7.764;2022-07-12T02:07:46;8.50;;;7.80;;
7432;SDS011;32233;49.500;7.764;2022-07-12T02:10:13;8.37;;;7.57;;
7432;SDS011;32233;49.500;7.764;2022-07-12T02:12:40;8.93;;;8.03;;
7432;SDS011;32233;49.500;7.764;2022-07-12T02:15:07;10.27;;;8.30;;
7432;SDS011;32233;49.500;7.764;2022-07-12T02:17:33;9.20;;;8.30;;
7432;SDS011;32233;49.500;7.764;2022-07-12T02:20:01;8.67;;;7.87;;
7432;SDS011;32233;49.500;7.764;2022-07-12T02:22:27;8.30;;;7.50;;
7432;SDS011;32233;49.500;7.764;2022-07-12T02:24:55;8.93;;;8.03;;
7432;SDS011;32233;49.500;7.764;2022-07-12T02:27:21;8.90;;;8.00;;
7432;SDS011;32233;49.500;7.764;2022-07-12T02:29:48;8.90;;;8.03;;
7432;SDS011;32233;49.500;7.764;2022-07-12T02:32:15;9.20;;;8.07;;
7432;SDS011;32233;49.500;7.764;2022-07-12T02:34:42;8.30;;;7.00;;
7432;SDS011;32233;49.500;7.764;2022-07-12T02:37:08;8.27;;;7.40;;
7432;SDS011;32233;49.500;7.764;2022-07-12T02:39:36;9.10;;;7.23;;
7432;SDS011;32233;49.500;7.764;2022-07-12T02:42:03;8.27;;;7.47;;
7432;SDS011;32233;49.500;7.764;2022-07-12T02:44:30;8.63;;;7.70;;
7432;SDS011;32233;49.500;7.764;2022-07-12T02:46:57;8.07;;;6.93;;
7432;SDS011;32233;49.500;7.764;2022-07-12T02:49:26;10.40;;;7.77;;
7432;SDS011;32233;49.500;7.764;2022-07-12T02:51:52;7.67;;;6.90;;
7432;SDS011;32233;49.500;7.764;2022-07-12T02:54:19;8.57;;;6.97;;
7432;SDS011;32233;49.500;7.764;2022-07-12T02:56:46;7.50;;;6.70;;
7432;SDS011;32233;49.500;7.764;2022-07-12T02:59:13;7.57;;;6.87;;
7432;SDS011;32233;49.500;7.764;2022-07-12T03:01:40;7.40;;;6.73;;
7432;SDS011;32233;49.500;7.764;2022-07-12T03:04:07;7.63;;;6.10;;
7432;SDS011;32233;49.500;7.764;2022-07-12T03:06:34;7.27;;;6.10;;
7432;SDS011;32233;49.500;7.764;2022-07-12T03:09:01;7.67;;;6.73;;
7432;SDS011;32233;49.500;7.764;2022-07-12T03:11:28;6.63;;;6.00;;
7432;SDS011;32233;49.500;7.764;2022-07-12T03:13:55;7.03;;;6.33;;
7432;SDS011;32233;49.500;7.764;2022-07-12T03:16:22;7.20;;;6.50;;
7432;SDS011;32233;49.500;7.764;2022-07-12T03:18:48;7.00;;;6.30;;
7432;SDS011;32233;49.500;7.764;2022-07-12T03:21:15;7.10;;;6.40;;
7432;SDS011;32233;49.500;7.764;2022-07-12T03:23:43;7.70;;;6.73;;
7432;SDS011;32233;49.500;7.764;2022-07-12T03:26:11;7.47;;;6.73;;
7432;SDS011;32233;49.500;7.764;2022-07-12T03:28:39;7.17;;;6.47;;
7432;SDS011;32233;49.500;7.764;2022-07-12T03:31:05;6.13;;;5.63;;
7432;SDS011;32233;49.500;7.764;2022-07-12T03:33:33;7.07;;;6.37;;
7432;SDS011;32233;49.500;7.764;2022-07-12T03:36:00;7.03;;;6.33;;
7432;SDS011;32233;49.500;7.764;2022-07-12T03:38:26;6.93;;;6.33;;
7432;SDS011;32233;49.500;7.764;2022-07-12T03:40:53;6.57;;;5.90;;
7432;SDS011;32233;49.500;7.764;2022-07-12T03:43:20;7.03;;;6.30;;
7432;SDS011;32233;49.500;7.764;2022-07-12T03:45:46;7.30;;;6.60;;
7432;SDS011;32233;49.500;7.764;2022-07-12T03:48:13;7.50;;;6.70;;
7432;SDS011;32233;49.500;7.764;2022-07-12T03:50:41;7.10;;;6.50;;
7432;SDS011;32233;49.500;7.764;2022-07-12T03:53:07;6.77;;;6.07;;
7432;SDS011;32233;49.500;7.764;2022-07-12T03:55:35;7.40;;;6.70;;
7432;SDS011;32233;49.500;7.764;2022-07-12T03:58:01;7.63;;;6.80;;
7432;SDS011;32233;49.500;7.764;2022-07-12T04:00:28;7.20;;;6.50;;
7432;SDS011;32233;49.500;7.764;2022-07-12T04:02:55;6.77;;;6.07;;
7432;SDS011;32233;49.500;7.764;2022-07-12T04:05:22;7.40;;;6.70;;
7432;SDS011;32233;49.500;7.764;2022-07-12T04:07:53;7.13;;;6.43;;
7432;SDS011;32233;49.500;7.764;2022-07-12T04:10:21;7.07;;;6.40;;
7432;SDS011;32233;49.500;7.764;2022-07-12T04:12:48;6.70;;;5.43;;
7432;SDS011;32233;49.500;7.764;2022-07-12T04:15:16;7.00;;;6.17;;
7432;SDS011;32233;49.500;7.764;2022-07-12T04:17:42;6.63;;;5.93;;
7432;SDS011;32233;49.500;7.764;2022-07-12T04:20:10;6.40;;;5.80;;
7432;SDS011;32233;49.500;7.764;2022-07-12T04:22:37;5.80;;;5.30;;
7432;SDS011;32233;49.500;7.764;2022-07-12T04:25:08;6.60;;;6.00;;
7432;SDS011;32233;49.500;7.764;2022-07-12T04:27:35;5.90;;;5.40;;
7432;SDS011;32233;49.500;7.764;2022-07-12T04:30:03;7.00;;;6.30;;
7432;SDS011;32233;49.500;7.764;2022-07-12T04:32:30;6.63;;;5.97;;
7432;SDS011;32233;49.500;7.764;2022-07-12T04:34:56;6.87;;;6.27;;
7432;SDS011;32233;49.500;7.764;2022-07-12T04:37:23;6.83;;;6.23;;
7432;SDS011;32233;49.500;7.764;2022-07-12T04:39:50;6.63;;;5.93;;
7432;SDS011;32233;49.500;7.764;2022-07-12T04:42:17;6.93;;;5.60;;
7432;SDS011;32233;49.500;7.764;2022-07-12T04:44:44;6.27;;;5.77;;
7432;SDS011;32233;49.500;7.764;2022-07-12T04:47:11;6.10;;;5.50;;
7432;SDS011;32233;49.500;7.764;2022-07-12T04:49:38;6.43;;;5.83;;
7432;SDS011;32233;49.500;7.764;2022-07-12T04:52:05;6.33;;;5.30;;
7432;SDS011;32233;49.500;7.764;2022-07-12T04:54:32;5.70;;;5.20;;
7432;SDS011;32233;49.500;7.764;2022-07-12T04:56:59;6.87;;;5.50;;
7432;SDS011;32233;49.500;7.764;2022-07-12T04:59:26;6.17;;;5.57;;
7432;SDS011;32233;49.500;7.764;2022-07-12T05:01:53;6.40;;;5.80;;
7432;SDS011;32233;49.500;7.764;2022-07-12T05:04:20;5.63;;;5.03;;
7432;SDS011;32233;49.500;7.764;2022-07-12T05:06:48;5.77;;;5.27;;
7432;SDS011;32233;49.500;7.764;2022-07-12T05:09:15;5.77;;;5.20;;
7432;SDS011;32233;49.500;7.764;2022-07-12T05:11:42;5.87;;;5.37;;
7432;SDS011;32233;49.500;7.764;2022-07-12T05:14:09;5.53;;;5.13;;
7432;SDS011;32233;49.500;7.764;2022-07-12T05:16:35;6.73;;;5.30;;
7432;SDS011;32233;49.500;7.764;2022-07-12T05:19:02;6.13;;;5.63;;
7432;SDS011;32233;49.500;7.764;2022-07-12T05:21:29;6.20;;;5.70;;
7432;SDS011;32233;49.500;7.764;2022-07-12T05:23:56;5.80;;;5.30;;
7432;SDS011;32233;49.500;7.764;2022-07-12T05:26:23;5.63;;;5.13;;
7432;SDS011;32233;49.500;7.764;2022-07-12T05:28:50;5.30;;;4.80;;
7432;SDS011;32233;49.500;7.764;2022-07-12T05:31:17;5.03;;;4.53;;
7432;SDS011;32233;49.500;7.764;2022-07-12T05:33:44;4.30;;;3.97;;
7432;SDS011;32233;49.500;7.764;2022-07-12T05:36:10;4.30;;;3.93;;
7432;SDS011;32233;49.500;7.764;2022-07-12T05:38:37;4.00;;;3.57;;
7432;SDS011;32233;49.500;7.764;2022-07-12T05:41:04;3.67;;;3.30;;
7432;SDS011;32233;49.500;7.764;2022-07-12T05:43:31;4.83;;;3.73;;
7432;SDS011;32233;49.500;7.764;2022-07-12T05:45:58;4.17;;;3.77;;
7432;SDS011;32233;49.500;7.764;2022-07-12T05:48:25;3.77;;;3.47;;
7432;SDS011;32233;49.500;7.764;2022-07-12T05:50:53;4.53;;;4.13;;
7432;SDS011;32233;49.500;7.764;2022-07-12T05:53:20;4.53;;;4.07;;
7432;SDS011;32233;49.500;7.764;2022-07-12T05:55:50;3.97;;;3.67;;
7432;SDS011;32233;49.500;7.764;2022-07-12T05:58:18;4.20;;;3.87;;
7432;SDS011;32233;49.500;7.764;2022-07-12T06:00:46;3.73;;;3.50;;
7432;SDS011;32233;49.500;7.764;2022-07-12T06:03:16;3.40;;;3.20;;
7432;SDS011;32233;49.500;7.764;2022-07-12T06:05:43;3.67;;;3.40;;
7432;SDS011;32233;49.500;7.764;2022-07-12T06:08:10;3.43;;;2.90;;
7432;SDS011;32233;49.500;7.764;2022-07-12T06:10:37;3.40;;;3.20;;
7432;SDS011;32233;49.500;7.764;2022-07-12T06:13:04;3.20;;;3.00;;
7432;SDS011;32233;49.500;7.764;2022-07-12T06:15:30;2.90;;;2.70;;
7432;SDS011;32233;49.500;7.764;2022-07-12T06:17:59;3.87;;;3.60;;
7432;SDS011;32233;49.500;7.764;2022-07-12T06:20:27;3.07;;;2.87;;
7432;SDS011;32233;49.500;7.764;2022-07-12T06:22:54;2.77;;;2.57;;
7432;SDS011;32233;49.500;7.764;2022-07-12T06:25:22;3.10;;;2.73;;
7432;SDS011;32233;49.500;7.764;2022-07-12T06:28:10;3.27;;;3.03;;
7432;SDS011;32233;49.500;7.764;2022-07-12T06:30:36;3.30;;;3.00;;
7432;SDS011;32233;49.500;7.764;2022-07-12T06:33:03;2.83;;;2.60;;
7432;SDS011;32233;49.500;7.764;2022-07-12T06:35:29;2.30;;;2.07;;
7432;SDS011;32233;49.500;7.764;2022-07-12T06:40:31;1.50;;;1.40;;
7432;SDS011;32233;49.500;7.764;2022-07-12T06:42:57;1.20;;;1.20;;
7432;SDS011;32233;49.500;7.764;2022-07-12T06:45:24;1.60;;;1.33;;
7432;SDS011;32233;49.500;7.764;2022-07-12T06:47:52;1.40;;;1.00;;
7432;SDS011;32233;49.500;7.764;2022-07-12T06:50:19;1.90;;;1.20;;
7432;SDS011;32233;49.500;7.764;2022-07-12T06:52:46;1.00;;;1.00;;
7432;SDS011;32233;49.500;7.764;2022-07-12T06:55:13;1.30;;;1.20;;
7432;SDS011;32233;49.500;7.764;2022-07-12T06:57:41;1.90;;;1.20;;
7432;SDS011;32233;49.500;7.764;2022-07-12T07:00:08;1.80;;;1.00;;
7432;SDS011;32233;49.500;7.764;2022-07-12T07:02:35;1.10;;;1.00;;
7432;SDS011;32233;49.500;7.764;2022-07-12T07:05:02;1.50;;;1.10;;
7432;SDS011;32233;49.500;7.764;2022-07-12T07:07:29;1.20;;;1.10;;
7432;SDS011;32233;49.500;7.764;2022-07-12T07:09:56;1.10;;;1.10;;
7432;SDS011;32233;49.500;7.764;2022-07-12T07:12:23;1.60;;;1.20;;
7432;SDS011;32233;49.500;7.764;2022-07-12T07:14:50;0.90;;;0.90;;
7432;SDS011;32233;49.500;7.764;2022-07-12T07:17:17;0.93;;;0.93;;
7432;SDS011;32233;49.500;7.764;2022-07-12T07:19:44;0.90;;;0.90;;
7432;SDS011;32233;49.500;7.764;2022-07-12T07:22:12;0.83;;;0.80;;
7432;SDS011;32233;49.500;7.764;2022-07-12T07:24:39;0.70;;;0.70;;
7432;SDS011;32233;49.500;7.764;2022-07-12T07:27:06;0.80;;;0.80;;
7432;SDS011;32233;49.500;7.764;2022-07-12T07:29:34;0.90;;;0.90;;
7432;SDS011;32233;49.500;7.764;2022-07-12T07:32:20;0.60;;;0.60;;
7432;SDS011;32233;49.500;7.764;2022-07-12T07:34:47;0.70;;;0.70;;
7432;SDS011;32233;49.500;7.764;2022-07-12T07:37:14;0.83;;;0.83;;
7432;SDS011;32233;49.500;7.764;2022-07-12T07:39:41;1.00;;;1.00;;
7432;SDS011;32233;49.500;7.764;2022-07-12T07:42:08;0.80;;;0.80;;
7432;SDS011;32233;49.500;7.764;2022-07-12T07:44:35;0.97;;;0.70;;
7432;SDS011;32233;49.500;7.764;2022-07-12T07:47:23;1.33;;;0.60;;
7432;SDS011;32233;49.500;7.764;2022-07-12T07:49:49;0.70;;;0.70;;
7432;SDS011;32233;49.500;7.764;2022-07-12T07:52:17;1.43;;;0.70;;
7432;SDS011;32233;49.500;7.764;2022-07-12T07:54:44;0.73;;;0.60;;
7432;SDS011;32233;49.500;7.764;2022-07-12T07:57:11;1.67;;;0.73;;
7432;SDS011;32233;49.500;7.764;2022-07-12T07:59:38;0.73;;;0.70;;
7432;SDS011;32233;49.500;7.764;2022-07-12T08:02:04;0.50;;;0.50;;
7432;SDS011;32233;49.500;7.764;2022-07-12T08:04:31;0.60;;;0.60;;
7432;SDS011;32233;49.500;7.764;2022-07-12T08:06:58;0.80;;;0.80;;
7432;SDS011;32233;49.500;7.764;2022-07-12T08:09:24;0.63;;;0.63;;
7432;SDS011;32233;49.500;7.764;2022-07-12T08:11:51;0.60;;;0.60;;
7432;SDS011;32233;49.500;7.764;2022-07-12T08:14:18;0.75;;;0.73;;
7432;SDS011;32233;49.500;7.764;2022-07-12T08:16:45;0.65;;;0.65;;
7432;SDS011;32233;49.500;7.764;2022-07-12T08:19:11;2.20;;;0.63;;
7432;SDS011;32233;49.500;7.764;2022-07-12T08:21:38;0.60;;;0.60;;
7432;SDS011;32233;49.500;7.764;2022-07-12T08:24:05;1.23;;;0.60;;
7432;SDS011;32233;49.500;7.764;2022-07-12T08:26:32;1.20;;;0.50;;
7432;SDS011;32233;49.500;7.764;2022-07-12T08:28:59;0.63;;;0.60;;
7432;SDS011;32233;49.500;7.764;2022-07-12T08:31:26;2.00;;;0.50;;
7432;SDS011;32233;49.500;7.764;2022-07-12T08:33:53;0.50;;;0.50;;
7432;SDS011;32233;49.500;7.764;2022-07-12T08:36:20;1.10;;;0.77;;
7432;SDS011;32233;49.500;7.764;2022-07-12T08:38:46;1.13;;;0.80;;
7432;SDS011;32233;49.500;7.764;2022-07-12T08:41:14;1.00;;;1.00;;
7432;SDS011;32233;49.500;7.764;2022-07-12T08:43:41;0.60;;;0.60;;
7432;SDS011;32233;49.500;7.764;2022-07-12T08:46:08;0.50;;;0.50;;
7432;SDS011;32233;49.500;7.764;2022-07-12T08:48:36;0.50;;;0.50;;
7432;SDS011;32233;49.500;7.764;2022-07-12T08:51:06;1.13;;;0.80;;
7432;SDS011;32233;49.500;7.764;2022-07-12T08:53:33;1.33;;;0.90;;
7432;SDS011;32233;49.500;7.764;2022-07-12T08:56:01;1.57;;;1.33;;
7432;SDS011;32233;49.500;7.764;2022-07-12T08:58:28;1.00;;;0.90;;
7432;SDS011;32233;49.500;7.764;2022-07-12T09:00:55;0.70;;;0.70;;
7432;SDS011;32233;49.500;7.764;2022-07-12T09:03:22;0.70;;;0.70;;
7432;SDS011;32233;49.500;7.764;2022-07-12T09:05:53;1.13;;;0.80;;
7432;SDS011;32233;49.500;7.764;2022-07-12T09:08:30;0.70;;;0.70;;
7432;SDS011;32233;49.500;7.764;2022-07-12T09:10:59;0.70;;;0.70;;
7432;SDS011;32233;49.500;7.764;2022-07-12T09:13:49;1.57;;;1.07;;
7432;SDS011;32233;49.500;7.764;2022-07-12T09:16:26;0.87;;;0.70;;
7432;SDS011;32233;49.500;7.764;2022-07-12T09:21:45;1.00;;;0.80;;
7432;SDS011;32233;49.500;7.764;2022-07-12T09:24:13;1.67;;;0.90;;
7432;SDS011;32233;49.500;7.764;2022-07-12T09:26:39;0.70;;;0.70;;
7432;SDS011;32233;49.500;7.764;2022-07-12T09:29:07;1.27;;;0.87;;
7432;SDS011;32233;49.500;7.764;2022-07-12T09:31:41;0.83;;;0.70;;
7432;SDS011;32233;49.500;7.764;2022-07-12T09:34:29;0.60;;;0.60;;
7432;SDS011;32233;49.500;7.764;2022-07-12T09:37:14;1.13;;;0.67;;
7432;SDS011;32233;49.500;7.764;2022-07-12T09:39:41;1.07;;;0.47;;
7432;SDS011;32233;49.500;7.764;2022-07-12T09:42:09;0.53;;;0.50;;
7432;SDS011;32233;49.500;7.764;2022-07-12T09:44:37;2.63;;;0.60;;
7432;SDS011;32233;49.500;7.764;2022-07-12T09:47:06;1.53;;;0.70;;
7432;SDS011;32233;49.500;7.764;2022-07-12T09:49:33;0.67;;;0.67;;
7432;SDS011;32233;49.500;7.764;2022-07-12T09:52:02;1.00;;;0.73;;
7432;SDS011;32233;49.500;7.764;2022-07-12T09:54:29;1.00;;;0.63;;
7432;SDS011;32233;49.500;7.764;2022-07-12T09:56:59;0.63;;;0.50;;
7432;SDS011;32233;49.500;7.764;2022-07-12T09:59:27;1.03;;;0.60;;
7432;SDS011;32233;49.500;7.764;2022-07-12T10:01:55;0.50;;;0.50;;
7432;SDS011;32233;49.500;7.764;2022-07-12T10:04:28;0.70;;;0.60;;
7432;SDS011;32233;49.500;7.764;2022-07-12T10:06:55;1.07;;;0.50;;
7432;SDS011;32233;49.500;7.764;2022-07-12T10:09:23;0.50;;;0.50;;
7432;SDS011;32233;49.500;7.764;2022-07-12T10:11:50;0.50;;;0.50;;
7432;SDS011;32233;49.500;7.764;2022-07-12T10:14:28;2.20;;;0.63;;
7432;SDS011;32233;49.500;7.764;2022-07-12T10:16:55;0.90;;;0.60;;
7432;SDS011;32233;49.500;7.764;2022-07-12T10:21:53;0.50;;;0.50;;
7432;SDS011;32233;49.500;7.764;2022-07-12T10:25:03;1.70;;;0.60;;
7432;SDS011;32233;49.500;7.764;2022-07-12T10:30:12;2.77;;;1.10;;
7432;SDS011;32233;49.500;7.764;2022-07-12T10:32:41;10.77;;;1.50;;
7432;SDS011;32233;49.500;7.764;2022-07-12T10:35:21;2.50;;;0.93;;
7432;SDS011;32233;49.500;7.764;2022-07-12T10:40:34;0.70;;;0.70;;
7432;SDS011;32233;49.500;7.764;2022-07-12T10:45:34;3.67;;;0.90;;
7432;SDS011;32233;49.500;7.764;2022-07-12T10:48:05;0.60;;;0.60;;
7432;SDS011;32233;49.500;7.764;2022-07-12T10:56:19;4.20;;;0.70;;
7432;SDS011;32233;49.500;7.764;2022-07-12T10:58:45;0.40;;;0.40;;
7432;SDS011;32233;49.500;7.764;2022-07-12T11:01:15;1.20;;;0.67;;
7432;SDS011;32233;49.500;7.764;2022-07-12T11:03:44;0.87;;;0.57;;
7432;SDS011;32233;49.500;7.764;2022-07-12T11:06:12;0.53;;;0.53;;
7432;SDS011;32233;49.500;7.764;2022-07-12T11:08:46;1.90;;;1.00;;
7432;SDS011;32233;49.500;7.764;2022-07-12T11:11:13;5.60;;;1.00;;
7432;SDS011;32233;49.500;7.764;2022-07-12T11:13:40;0.77;;;0.77;;
7432;SDS011;32233;49.500;7.764;2022-07-12T11:16:07;1.20;;;0.85;;
7432;SDS011;32233;49.500;7.764;2022-07-12T11:18:34;1.48;;;0.60;;
7432;SDS011;32233;49.500;7.764;2022-07-12T11:21:02;2.17;;;0.60;;
7432;SDS011;32233;49.500;7.764;2022-07-12T11:23:29;1.48;;;0.60;;
7432;SDS011;32233;49.500;7.764;2022-07-12T11:25:56;0.50;;;0.50;;
7432;SDS011;32233;49.500;7.764;2022-07-12T11:28:24;0.50;;;0.50;;
7432;SDS011;32233;49.500;7.764;2022-07-12T11:30:51;0.70;;;0.63;;
7432;SDS011;32233;49.500;7.764;2022-07-12T11:33:18;1.25;;;0.50;;
7432;SDS011;32233;49.500;7.764;2022-07-12T11:35:45;0.70;;;0.70;;
7432;SDS011;32233;49.500;7.764;2022-07-12T11:38:13;0.60;;;0.60;;
7432;SDS011;32233;49.500;7.764;2022-07-12T11:40:40;0.50;;;0.50;;
7432;SDS011;32233;49.500;7.764;2022-07-12T11:43:07;0.45;;;0.45;;
7432;SDS011;32233;49.500;7.764;2022-07-12T11:45:34;0.60;;;0.60;;
7432;SDS011;32233;49.500;7.764;2022-07-12T11:48:01;1.17;;;0.50;;
7432;SDS011;32233;49.500;7.764;2022-07-12T11:50:29;0.70;;;0.65;;
7432;SDS011;32233;49.500;7.764;2022-07-12T11:53:02;1.60;;;0.50;;
7432;SDS011;32233;49.500;7.764;2022-07-12T11:55:30;1.58;;;0.80;;
7432;SDS011;32233;49.500;7.764;2022-07-12T11:58:03;0.88;;;0.60;;
7432;SDS011;32233;49.500;7.764;2022-07-12T12:00:30;1.48;;;0.73;;
7432;SDS011;32233;49.500;7.764;2022-07-12T12:02:57;1.05;;;0.60;;
7432;SDS011;32233;49.500;7.764;2022-07-12T12:05:24;0.80;;;0.60;;
7432;SDS011;32233;49.500;7.764;2022-07-12T12:07:51;1.23;;;0.60;;
7432;SDS011;32233;49.500;7.764;2022-07-12T12:10:21;1.27;;;0.60;;
7432;SDS011;32233;49.500;7.764;2022-07-12T12:12:48;2.70;;;0.60;;
7432;SDS011;32233;49.500;7.764;2022-07-12T12:15:17;3.97;;;0.80;;
7432;SDS011;32233;49.500;7.764;2022-07-12T12:20:20;1.85;;;0.60;;
7432;SDS011;32233;49.500;7.764;2022-07-12T12:22:47;2.30;;;0.63;;
7432;SDS011;32233;49.500;7.764;2022-07-12T12:25:15;0.50;;;0.50;;
7432;SDS011;32233;49.500;7.764;2022-07-12T12:30:55;3.58;;;0.77;;
7432;SDS011;32233;49.500;7.764;2022-07-12T12:33:33;3.00;;;0.68;;
7432;SDS011;32233;49.500;7.764;2022-07-12T12:38:44;2.35;;;0.50;;
7432;SDS011;32233;49.500;7.764;2022-07-12T12:41:11;0.68;;;0.50;;
7432;SDS011;32233;49.500;7.764;2022-07-12T12:43:38;5.50;;;0.70;;
7432;SDS011;32233;49.500;7.764;2022-07-12T12:46:05;1.10;;;0.60;;
7432;SDS011;32233;49.500;7.764;2022-07-12T12:48:32;0.65;;;0.60;;
7432;SDS011;32233;49.500;7.764;2022-07-12T12:51:09;0.52;;;0.52;;
7432;SDS011;32233;49.500;7.764;2022-07-12T12:53:37;0.50;;;0.50;;
7432;SDS011;32233;49.500;7.764;2022-07-12T12:56:06;7.00;;;1.10;;
7432;SDS011;32233;49.500;7.764;2022-07-12T12:58:34;1.05;;;0.50;;
7432;SDS011;32233;49.500;7.764;2022-07-12T13:01:00;3.35;;;0.60;;
7432;SDS011;32233;49.500;7.764;2022-07-12T13:03:27;0.82;;;0.50;;
7432;SDS011;32233;49.500;7.764;2022-07-12T13:05:53;0.50;;;0.50;;
7432;SDS011;32233;49.500;7.764;2022-07-12T13:08:20;0.55;;;0.40;;
7432;SDS011;32233;49.500;7.764;2022-07-12T13:10:47;0.50;;;0.50;;
7432;SDS011;32233;49.500;7.764;2022-07-12T13:13:35;1.77;;;0.40;;
7432;SDS011;32233;49.500;7.764;2022-07-12T13:16:01;0.45;;;0.45;;
7432;SDS011;32233;49.500;7.764;2022-07-12T13:18:28;1.75;;;0.55;;
7432;SDS011;32233;49.500;7.764;2022-07-12T13:20:54;1.10;;;0.40;;
7432;SDS011;32233;49.500;7.764;2022-07-12T13:23:21;0.73;;;0.50;;
7432;SDS011;32233;49.500;7.764;2022-07-12T13:25:48;2.92;;;0.60;;
7432;SDS011;32233;49.500;7.764;2022-07-12T13:28:20;1.05;;;0.52;;
7432;SDS011;32233;49.500;7.764;2022-07-12T13:30:47;0.93;;;0.40;;
7432;SDS011;32233;49.500;7.764;2022-07-12T13:33:13;1.43;;;0.60;;
7432;SDS011;32233;49.500;7.764;2022-07-12T13:35:41;1.70;;;0.50;;
7432;SDS011;32233;49.500;7.764;2022-07-12T13:38:07;1.67;;;0.47;;
7432;SDS011;32233;49.500;7.764;2022-07-12T13:40:34;2.13;;;0.50;;
7432;SDS011;32233;49.500;7.764;2022-07-12T13:43:02;1.50;;;0.50;;
7432;SDS011;32233;49.500;7.764;2022-07-12T13:45:30;0.40;;;0.40;;
7432;SDS011;32233;49.500;7.764;2022-07-12T13:47:58;0.40;;;0.40;;
7432;SDS011;32233;49.500;7.764;2022-07-12T13:50:26;0.40;;;0.40;;
7432;SDS011;32233;49.500;7.764;2022-07-12T13:52:57;2.40;;;0.50;;
7432;SDS011;32233;49.500;7.764;2022-07-12T13:55:26;0.40;;;0.40;;
7432;SDS011;32233;49.500;7.764;2022-07-12T13:57:53;0.57;;;0.47;;
7432;SDS011;32233;49.500;7.764;2022-07-12T14:00:19;1.13;;;0.47;;
7432;SDS011;32233;49.500;7.764;2022-07-12T14:02:47;0.50;;;0.40;;
7432;SDS011;32233;49.500;7.764;2022-07-12T14:05:20;0.40;;;0.40;;
7432;SDS011;32233;49.500;7.764;2022-07-12T14:07:47;0.50;;;0.50;;
7432;SDS011;32233;49.500;7.764;2022-07-12T14:10:14;0.43;;;0.40;;
7432;SDS011;32233;49.500;7.764;2022-07-12T14:12:41;0.30;;;0.30;;
7432;SDS011;32233;49.500;7.764;2022-07-12T14:15:08;0.60;;;0.50;;
7432;SDS011;32233;49.500;7.764;2022-07-12T14:17:38;4.57;;;0.40;;
7432;SDS011;32233;49.500;7.764;2022-07-12T14:20:05;2.00;;;0.50;;
7432;SDS011;32233;49.500;7.764;2022-07-12T14:22:33;0.93;;;0.50;;
7432;SDS011;32233;49.500;7.764;2022-07-12T14:25:01;1.53;;;0.70;;
7432;SDS011;32233;49.500;7.764;2022-07-12T14:27:29;6.10;;;5.53;;
7432;SDS011;32233;49.500;7.764;2022-07-12T14:29:56;0.80;;;0.80;;
7432;SDS011;32233;49.500;7.764;2022-07-12T14:32:23;2.00;;;1.03;;
7432;SDS011;32233;49.500;7.764;2022-07-12T14:34:50;0.70;;;0.70;;
7432;SDS011;32233;49.500;7.764;2022-07-12T14:37:17;0.93;;;0.53;;
7432;SDS011;32233;49.500;7.764;2022-07-12T14:39:45;1.73;;;0.60;;
7432;SDS011;32233;49.500;7.764;2022-07-12T14:42:12;1.33;;;0.50;;
7432;SDS011;32233;49.500;7.764;2022-07-12T14:44:39;0.50;;;0.50;;
7432;SDS011;32233;49.500;7.764;2022-07-12T14:47:06;0.50;;;0.50;;
7432;SDS011;32233;49.500;7.764;2022-07-12T14:49:34;1.60;;;0.47;;
7432;SDS011;32233;49.500;7.764;2022-07-12T14:52:00;0.50;;;0.50;;
7432;SDS011;32233;49.500;7.764;2022-07-12T14:54:28;1.40;;;0.40;;
7432;SDS011;32233;49.500;7.764;2022-07-12T14:56:54;0.70;;;0.50;;
7432;SDS011;32233;49.500;7.764;2022-07-12T14:59:21;0.40;;;0.40;;
7432;SDS011;32233;49.500;7.764;2022-07-12T15:01:49;0.50;;;0.40;;
7432;SDS011;32233;49.500;7.764;2022-07-12T15:04:17;2.23;;;0.60;;
7432;SDS011;32233;49.500;7.764;2022-07-12T15:06:43;0.40;;;0.40;;
7432;SDS011;32233;49.500;7.764;2022-07-12T15:09:11;1.07;;;0.50;;
7432;SDS011;32233;49.500;7.764;2022-07-12T15:11:38;0.40;;;0.40;;
7432;SDS011;32233;49.500;7.764;2022-07-12T15:14:06;0.83;;;0.40;;
7432;SDS011;32233;49.500;7.764;2022-07-12T15:16:32;0.70;;;0.40;;
7432;SDS011;32233;49.500;7.764;2022-07-12T15:18:59;1.43;;;0.40;;
7432;SDS011;32233;49.500;7.764;2022-07-12T15:21:26;1.53;;;0.50;;
7432;SDS011;32233;49.500;7.764;2022-07-12T15:23:53;0.93;;;0.40;;
7432;SDS011;32233;49.500;7.764;2022-07-12T15:26:20;1.90;;;0.40;;
7432;SDS011;32233;49.500;7.764;2022-07-12T15:28:51;2.10;;;0.70;;
7432;SDS011;32233;49.500;7.764;2022-07-12T15:31:18;0.40;;;0.40;;
7432;SDS011;32233;49.500;7.764;2022-07-12T15:33:45;0.70;;;0.50;;